Nearby METAR Reports

 

KSBP - San Luis Obispo, California, USA
Distance from station: S 14mi, 22km
Updated: Sat, 23-Jan-2021 2:56am PST
Few Clouds
Few Clouds
 Wind from SE
Wind: SE 3 mph , 6 km/h
Temperature: 46°F , 8°C
Dew Point: 45°F , 7°C
Humidity: 93%
Barometer: 1012.9 hPa
Clouds: Few Clouds
Visibility: 10 miles , 16 km
Cloud details: Few Clouds 2900 ft
2021/01/23 10:56 KSBP 231056Z AUTO 13003KT 10SM FEW029 08/07 A2991 RMK AO2 SLP128 T00780072
KPRB - Paso Robles, California, USA
Distance from station: N 16mi, 26km
Updated: Sat, 23-Jan-2021 3:53am PST
Overcast
Overcast
 Wind from NNE
Wind: NNE 3 mph , 6 km/h
Temperature: 41°F , 5°C
Dew Point: 37°F , 3°C
Humidity: 87%
Barometer: 1011.9 hPa
Clouds: Overcast
Visibility: 10 miles , 16 km
Cloud details: Mostly cloudy 4800 ft
Overcast 9000 ft
2021/01/23 11:53 KPRB 231153Z AUTO 03003KT 10SM BKN048 OVC090 05/03 A2988 RMK AO2 SLP119 T00500033 10067 20039 58003
 
KSMX - Santa Maria, California, USA
Distance from station: SSE 38mi, 62km
Updated: Sat, 23-Jan-2021 3:51am PST
Light rain, Overcast
Light rain, Overcast
 Wind from S
Wind: S 3 mph , 6 km/h
Temperature: 46°F , 8°C
Dew Point: 45°F , 7°C
Humidity: 93%
Barometer: 1012.9 hPa
Summary: Light rain
Clouds: Overcast
Visibility: 7 miles , 11 km
Cloud details: Partly cloudy 2300 ft
Mostly cloudy 2900 ft
Overcast 4600 ft
2021/01/23 11:51 KSMX 231151Z AUTO 19003KT 7SM -RA SCT023 BKN029 OVC046 08/07 A2991 RMK AO2 SLP132 P0002 60008 70018 T00830072 10089 20078 56006
KVBG - Vandenberg Afb, California, USA
Distance from station: S 48mi, 78km
Updated: Wed, 20-Jan-2021 10:58am PST
NOT Current
Clear
Clear
 Wind from ESE
Wind: ESE 15 mph , 24 km/h
Temperature: 72°F , 22°C
Dew Point: 30°F , -1°C
Humidity: 22%
Barometer: 1016.6 hPa
Clouds: Clear
Visibility: 9 miles , 14 km
2021/01/20 18:58 KVBG 201858Z AUTO 11013KT 9SM CLR 22/M01 A3002 RMK AO2 SLP167 T02201010